Kalam Weather



Kalam's Current Weather

Temprature 16.86o clear sky

clear sky

Rain: 0 %

Min Temprature16.86o
Max Temprature16.86o
Humidity68
Wind Speed0.64 m/h
Sun Rise06:00:17
Sun Set18:01:56
Current Time: 26-Sep-2022 07:55:01
Lat/Lon: 35.4816, 72.5848




Kalam's Geo Location



Kalam's Weather Forecast

Time Overall Temp Min Temp Max Temp Humidity Wind Speed Rain
26-Sep-2022 (Mon)
08:00:00 clear sky 16.860 16.860 16.860 68 0.64 m/h 0 %
11:00:00 clear sky 18.470 18.470 21.680 61 1.82 m/h 0 %
14:00:00 light rain 21.070 21.070 23.180 51 2.8 m/h 15 %
17:00:00 light rain 20.570 20.570 20.570 62 2.37 m/h 41 %
20:00:00 light rain 16.760 16.760 16.760 85 0.75 m/h 46 %
23:00:00 light rain 15.140 15.140 15.140 88 0.58 m/h 13 %
27-Sep-2022 (Tue)
02:00:00 clear sky 14.610 14.610 14.610 79 0.89 m/h 0 %
05:00:00 clear sky 14.160 14.160 14.160 66 1.61 m/h 0 %
08:00:00 clear sky 18.990 18.990 18.990 48 0.49 m/h 0 %
11:00:00 clear sky 22.890 22.890 22.890 41 2.23 m/h 0 %
14:00:00 light rain 22.560 22.560 22.560 49 3.9 m/h 27 %
17:00:00 light rain 19.670 19.670 19.670 67 3.16 m/h 124 %
20:00:00 light rain 15.170 15.170 15.170 93 1.54 m/h 64 %
23:00:00 light rain 14.150 14.150 14.150 94 1.04 m/h 14 %
28-Sep-2022 (Wed)
02:00:00 scattered clouds 12.710 12.710 12.710 94 0.63 m/h 0 %
05:00:00 scattered clouds 11.940 11.940 11.940 91 0.77 m/h 0 %
08:00:00 clear sky 16.370 16.370 16.370 69 0.59 m/h 0 %
11:00:00 light rain 20.530 20.530 20.530 48 2.97 m/h 14 %
14:00:00 light rain 19.620 19.620 19.620 58 3.97 m/h 167 %
17:00:00 light rain 17.430 17.430 17.430 71 2.85 m/h 211 %
20:00:00 light rain 14.380 14.380 14.380 87 0.79 m/h 132 %
23:00:00 light rain 13.000 13.000 13.000 91 0.24 m/h 14 %
29-Sep-2022 (Thu)
02:00:00 few clouds 12.110 12.110 12.110 90 0.74 m/h 0 %
05:00:00 clear sky 11.500 11.500 11.500 89 1.03 m/h 0 %
08:00:00 clear sky 16.060 16.060 16.060 70 0.69 m/h 0 %
11:00:00 clear sky 20.310 20.310 20.310 51 2.21 m/h 0 %
14:00:00 light rain 21.200 21.200 21.200 49 3.92 m/h 31 %
17:00:00 light rain 18.170 18.170 18.170 68 3.18 m/h 108 %
20:00:00 light rain 13.870 13.870 13.870 94 1.34 m/h 84 %
23:00:00 few clouds 12.850 12.850 12.850 95 0.5 m/h 0 %
30-Sep-2022 (Fri)
02:00:00 clear sky 12.160 12.160 12.160 93 0.63 m/h 0 %
05:00:00 clear sky 11.540 11.540 11.540 86 0.78 m/h 0 %
08:00:00 clear sky 16.700 16.700 16.700 62 0.13 m/h 0 %
11:00:00 clear sky 20.960 20.960 20.960 44 2.35 m/h 0 %
14:00:00 light rain 22.270 22.270 22.270 42 3.51 m/h 16 %
17:00:00 light rain 18.710 18.710 18.710 68 3.39 m/h 96 %
20:00:00 light rain 14.540 14.540 14.540 95 1.83 m/h 115 %
23:00:00 light rain 13.140 13.140 13.140 96 0.48 m/h 43 %
01-Oct-2022 (Sat)
02:00:00 broken clouds 12.670 12.670 12.670 94 0.37 m/h 0 %
05:00:00 broken clouds 12.610 12.610 12.610 90 0.47 m/h 0 %

Famous Cities (61)